createdAt,value
2023-01-10T00:00:55.504Z,3.63
2023-01-10T00:03:23.909Z,2.77
2023-01-10T00:05:53.952Z,2.80
2023-01-10T00:08:22.333Z,1.60
2023-01-10T00:10:50.740Z,2.00
2023-01-10T00:13:24.832Z,4.40
2023-01-10T00:15:53.558Z,1.93
2023-01-10T00:18:22.292Z,3.47
2023-01-10T00:20:50.858Z,2.27
2023-01-10T00:23:24.426Z,3.53
2023-01-10T00:25:52.848Z,3.40
2023-01-10T00:28:21.232Z,2.73
2023-01-10T00:30:54.995Z,4.73
2023-01-10T00:33:23.624Z,3.23
2023-01-10T00:35:52.032Z,2.43
2023-01-10T00:38:21.804Z,1.93
2023-01-10T00:40:50.230Z,3.83
2023-01-10T00:43:50.541Z,4.83
2023-01-10T00:46:18.923Z,2.77
2023-01-10T00:48:47.355Z,3.17
2023-01-10T00:51:18.501Z,5.40
2023-01-10T00:53:48.247Z,1.83
2023-01-10T00:56:16.878Z,3.20
2023-01-10T00:58:45.286Z,2.27
2023-01-10T01:01:13.717Z,4.10
2023-01-10T01:03:42.086Z,2.80
2023-01-10T01:06:10.607Z,2.33
2023-01-10T01:08:38.997Z,4.40
2023-01-10T01:11:09.916Z,4.10
2023-01-10T01:13:38.317Z,3.23
2023-01-10T01:16:06.972Z,3.33
2023-01-10T01:18:35.430Z,2.40
2023-01-10T01:21:05.678Z,3.30
2023-01-10T01:23:35.617Z,3.33
2023-01-10T01:26:04.112Z,4.30
2023-01-10T01:28:33.890Z,3.00
2023-01-10T01:31:08.330Z,4.07
2023-01-10T01:33:37.354Z,2.50
2023-01-10T01:36:09.674Z,5.10
2023-01-10T01:38:38.205Z,4.20
2023-01-10T01:41:27.123Z,2.83
2023-01-10T01:44:03.424Z,2.80
2023-01-10T01:46:32.899Z,5.03
2023-01-10T01:49:01.396Z,3.97
2023-01-10T01:51:31.106Z,3.10
2023-01-10T01:54:01.762Z,5.83
2023-01-10T01:56:32.007Z,5.63
2023-01-10T01:59:03.966Z,4.43
2023-01-10T02:01:33.113Z,2.87
2023-01-10T02:04:03.285Z,3.07
2023-01-10T02:06:31.834Z,3.00
2023-01-10T02:09:03.839Z,4.17
2023-01-10T02:11:32.432Z,2.30
2023-01-10T02:14:03.658Z,3.03
2023-01-10T02:16:32.026Z,4.20
2023-01-10T02:19:00.532Z,3.93
2023-01-10T02:21:52.587Z,3.60
2023-01-10T02:24:39.639Z,4.40
2023-01-10T02:27:21.983Z,3.67
2023-01-10T02:30:19.368Z,2.27
2023-01-10T02:33:04.300Z,6.40
2023-01-10T02:35:47.973Z,3.17
2023-01-10T02:38:22.772Z,3.63
2023-01-10T02:40:53.891Z,4.60
2023-01-10T02:43:24.553Z,3.30
2023-01-10T02:45:57.717Z,4.03
2023-01-10T02:48:27.476Z,2.30
2023-01-10T02:50:58.594Z,3.70
2023-01-10T02:53:28.836Z,2.87
2023-01-10T02:56:20.222Z,1.90
2023-01-10T02:58:55.853Z,4.13
2023-01-10T03:01:29.523Z,5.37
2023-01-10T03:06:45.453Z,2.53
2023-01-10T03:09:18.222Z,3.30
2023-01-10T03:11:48.098Z,3.57
2023-01-10T03:14:19.144Z,5.37
2023-01-10T03:16:49.472Z,4.63
2023-01-10T03:19:19.584Z,3.27
2023-01-10T03:21:50.358Z,2.37
2023-01-10T03:24:20.460Z,3.50
2023-01-10T03:26:51.143Z,4.07
2023-01-10T03:29:21.245Z,2.77
2023-01-10T03:31:53.695Z,3.90
2023-01-10T03:34:22.783Z,2.77
2023-01-10T03:36:55.240Z,3.60
2023-01-10T03:39:25.903Z,7.27
2023-01-10T03:41:56.956Z,3.47
2023-01-10T03:44:46.569Z,2.27
2023-01-10T03:47:17.865Z,5.00
2023-01-10T03:49:48.068Z,2.87
2023-01-10T03:52:19.377Z,3.47
2023-01-10T03:54:48.629Z,4.67
2023-01-10T03:57:18.348Z,4.03
2023-01-10T03:59:46.885Z,4.67
2023-01-10T04:02:15.278Z,4.67
2023-01-10T04:04:43.638Z,2.63
2023-01-10T04:07:11.964Z,2.40
2023-01-10T04:09:41.678Z,4.43
2023-01-10T04:12:10.142Z,5.50
2023-01-10T04:14:38.529Z,4.23
2023-01-10T04:17:07.103Z,2.00
2023-01-10T04:19:35.548Z,3.50
2023-01-10T04:22:05.717Z,4.27
2023-01-10T04:24:34.151Z,3.17
2023-01-10T04:27:03.858Z,5.00
2023-01-10T04:29:32.244Z,1.67
2023-01-10T04:32:01.141Z,3.93
2023-01-10T04:34:29.584Z,2.80
2023-01-10T04:36:57.928Z,2.70
2023-01-10T04:39:26.338Z,6.10
2023-01-10T04:41:54.648Z,6.40
2023-01-10T04:44:24.398Z,3.37
2023-01-10T04:46:52.735Z,2.17
2023-01-10T04:49:21.109Z,5.97
2023-01-10T04:51:49.528Z,2.57
2023-01-10T04:54:21.159Z,3.03
2023-01-10T04:56:49.547Z,4.03
2023-01-10T04:59:17.914Z,1.87
2023-01-10T05:01:47.809Z,1.70
2023-01-10T05:04:16.227Z,4.40
2023-01-10T05:06:44.630Z,3.03
2023-01-10T05:09:13.047Z,3.43
2023-01-10T05:11:41.377Z,3.47
2023-01-10T05:14:09.691Z,2.80
2023-01-10T05:16:38.061Z,3.57
2023-01-10T05:19:07.845Z,2.40
2023-01-10T05:21:36.145Z,2.63
2023-01-10T05:24:04.483Z,1.90
2023-01-10T05:26:32.899Z,2.67
2023-01-10T05:29:01.219Z,4.07
2023-01-10T05:31:29.623Z,1.40
2023-01-10T05:33:58.039Z,2.23
2023-01-10T05:36:27.765Z,1.93
2023-01-10T05:38:56.102Z,5.10
2023-01-10T05:41:24.608Z,2.03
2023-01-10T05:43:54.421Z,3.30
2023-01-10T05:46:22.838Z,2.17
2023-01-10T05:48:51.156Z,3.90
2023-01-10T05:51:19.480Z,1.43
2023-01-10T05:53:50.368Z,3.23
2023-01-10T05:56:18.818Z,2.97
2023-01-10T05:58:49.382Z,2.47
2023-01-10T06:01:19.769Z,1.67
2023-01-10T06:03:48.394Z,1.73
2023-01-10T06:06:16.753Z,1.60
2023-01-10T06:08:45.115Z,4.30
2023-01-10T06:11:14.843Z,2.17
2023-01-10T06:13:43.198Z,2.20
2023-01-10T06:16:11.624Z,2.83
2023-01-10T06:18:40.109Z,2.97
2023-01-10T06:21:08.481Z,2.77
2023-01-10T06:23:36.897Z,3.83
2023-01-10T06:26:05.336Z,2.93
2023-01-10T06:28:35.089Z,3.37
2023-01-10T06:31:03.528Z,2.70
2023-01-10T06:33:31.936Z,1.50
2023-01-10T06:36:00.286Z,2.77
2023-01-10T06:38:28.646Z,3.00
2023-01-10T06:40:57.008Z,2.50
2023-01-10T06:43:26.048Z,2.40
2023-01-10T06:45:55.978Z,2.27
2023-01-10T06:48:24.323Z,1.87
2023-01-10T06:50:52.606Z,2.50
2023-01-10T06:53:20.885Z,2.07
2023-01-10T06:55:50.594Z,2.60
2023-01-10T06:58:18.944Z,2.37
2023-01-10T07:00:47.397Z,1.40
2023-01-10T07:03:17.182Z,2.47
2023-01-10T07:05:45.559Z,0.83
2023-01-10T07:08:14.010Z,1.47
2023-01-10T07:10:42.637Z,1.50
2023-01-10T07:13:11.357Z,2.20
2023-01-10T07:15:39.758Z,2.10
2023-01-10T07:18:09.422Z,1.87
2023-01-10T07:20:39.976Z,1.77
2023-01-10T07:23:08.324Z,2.77
2023-01-10T07:25:36.671Z,2.57
2023-01-10T07:28:06.490Z,3.00
2023-01-10T07:30:34.824Z,1.20
2023-01-10T07:33:03.995Z,2.60
2023-01-10T07:35:32.463Z,4.30
2023-01-10T07:38:03.276Z,5.37
2023-01-10T07:40:31.865Z,3.27
2023-01-10T07:43:01.040Z,5.57
2023-01-10T07:45:29.966Z,4.00
2023-01-10T07:47:59.043Z,2.87
2023-01-10T07:50:27.525Z,2.43
2023-01-10T07:52:56.192Z,3.43
2023-01-10T07:55:26.165Z,2.80
2023-01-10T07:57:54.896Z,1.43
2023-01-10T08:00:23.778Z,2.10
2023-01-10T08:02:54.827Z,3.43
2023-01-10T08:05:23.470Z,2.77
2023-01-10T08:07:52.407Z,5.23
2023-01-10T08:10:20.819Z,2.13
2023-01-10T08:12:51.331Z,2.80
2023-01-10T08:15:19.795Z,2.50
2023-01-10T08:17:48.207Z,2.97
2023-01-10T08:20:16.813Z,5.27
2023-01-10T08:22:45.189Z,5.27
2023-01-10T08:25:13.868Z,3.70
2023-01-10T08:27:42.341Z,5.17
2023-01-10T08:30:12.984Z,2.80
2023-01-10T08:32:41.467Z,2.07
2023-01-10T08:35:10.255Z,4.93
2023-01-10T08:37:38.865Z,5.13
2023-01-10T08:40:12.471Z,8.90
2023-01-10T08:42:40.999Z,3.87
2023-01-10T08:45:10.105Z,6.57
2023-01-10T08:47:40.008Z,2.33
2023-01-10T08:50:14.484Z,3.30
2023-01-10T08:52:42.997Z,2.00
2023-01-10T08:55:11.998Z,2.27
2023-01-10T08:57:40.400Z,5.47
2023-01-10T09:00:09.343Z,3.37
2023-01-10T09:02:37.751Z,2.10
2023-01-10T09:05:18.628Z,4.17
2023-01-10T09:07:54.981Z,3.60
2023-01-10T09:10:37.571Z,4.93
2023-01-10T09:13:06.083Z,6.10
2023-01-10T09:15:35.851Z,5.57
2023-01-10T09:18:05.964Z,3.90
2023-01-10T09:20:36.767Z,3.50
2023-01-10T09:23:09.461Z,3.83
2023-01-10T09:25:37.930Z,5.70
2023-01-10T09:28:07.042Z,6.83
2023-01-10T09:30:35.430Z,3.77
2023-01-10T09:33:03.906Z,5.73
2023-01-10T09:35:32.938Z,5.90
2023-01-10T09:38:03.092Z,5.23
2023-01-10T09:40:35.549Z,5.20
2023-01-10T09:43:07.491Z,7.03
2023-01-10T09:45:39.637Z,4.33
2023-01-10T09:48:09.189Z,6.23
2023-01-10T09:50:45.398Z,4.70
2023-01-10T09:53:17.635Z,6.57
2023-01-10T09:55:47.900Z,7.00
2023-01-10T09:58:17.209Z,3.70
2023-01-10T10:00:46.989Z,6.43
2023-01-10T10:03:27.905Z,3.50
2023-01-10T10:06:10.611Z,3.70
2023-01-10T10:08:41.857Z,5.50
2023-01-10T10:11:17.665Z,5.70
2023-01-10T10:13:50.144Z,5.17
2023-01-10T10:16:23.430Z,7.20
2023-01-10T10:18:55.974Z,7.53
2023-01-10T10:21:28.601Z,6.50
2023-01-10T10:24:12.156Z,5.73
2023-01-10T10:26:45.967Z,3.37
2023-01-10T10:29:25.344Z,8.03
2023-01-10T10:32:09.783Z,7.00
2023-01-10T10:34:41.975Z,5.00
2023-01-10T10:37:13.283Z,4.87
2023-01-10T10:39:45.097Z,4.20
2023-01-10T10:42:16.455Z,7.83
2023-01-10T10:44:47.062Z,6.70
2023-01-10T10:47:16.796Z,4.87
2023-01-10T10:49:47.019Z,7.83
2023-01-10T10:52:24.161Z,4.80
2023-01-10T10:54:53.103Z,6.90
2023-01-10T10:57:23.751Z,6.07
2023-01-10T10:59:52.681Z,5.53
2023-01-10T11:02:23.586Z,5.03
2023-01-10T11:04:57.020Z,8.73
2023-01-10T11:07:26.984Z,5.67
2023-01-10T11:10:00.530Z,6.43
2023-01-10T11:12:35.266Z,5.70
2023-01-10T11:15:04.687Z,6.07
2023-01-10T11:17:40.887Z,6.03
2023-01-10T11:20:15.725Z,6.33
2023-01-10T11:22:48.302Z,6.50
2023-01-10T11:25:17.513Z,7.20
2023-01-10T11:27:49.541Z,6.10
2023-01-10T11:30:20.234Z,8.43
2023-01-10T11:32:51.551Z,7.03
2023-01-10T11:35:22.555Z,8.87
2023-01-10T11:38:00.781Z,6.00
2023-01-10T11:40:30.872Z,6.23
2023-01-10T11:43:01.766Z,6.00
2023-01-10T11:45:35.251Z,8.27
2023-01-10T11:48:08.835Z,7.27
2023-01-10T11:50:39.042Z,7.87
2023-01-10T11:53:09.845Z,7.13
2023-01-10T11:55:39.293Z,7.87
2023-01-10T11:58:10.226Z,5.73
2023-01-10T12:00:41.159Z,6.57
2023-01-10T12:03:24.009Z,7.70
2023-01-10T12:05:53.819Z,5.33
2023-01-10T12:08:27.086Z,3.03
2023-01-10T12:11:01.792Z,6.27
2023-01-10T12:13:32.428Z,6.90
2023-01-10T12:16:16.768Z,3.23
2023-01-10T12:18:45.525Z,7.97
2023-01-10T12:21:18.059Z,5.37
2023-01-10T12:23:51.965Z,7.50
2023-01-10T12:26:35.277Z,5.90
2023-01-10T12:29:09.265Z,7.93
2023-01-10T12:31:38.832Z,5.83
2023-01-10T12:34:09.517Z,6.10
2023-01-10T12:36:44.692Z,6.90
2023-01-10T12:39:21.227Z,7.23
2023-01-10T12:42:11.156Z,5.73
2023-01-10T12:44:42.341Z,6.87
2023-01-10T12:47:19.913Z,6.93
2023-01-10T12:49:51.185Z,5.00
2023-01-10T12:52:26.442Z,4.37
2023-01-10T12:54:54.952Z,7.77
2023-01-10T12:57:26.096Z,5.33
2023-01-10T12:59:56.905Z,6.33
2023-01-10T13:02:27.990Z,5.67
2023-01-10T13:04:59.228Z,7.57
2023-01-10T13:07:29.485Z,7.07
2023-01-10T13:09:59.669Z,5.83
2023-01-10T13:12:35.427Z,8.67
2023-01-10T13:15:08.421Z,5.30
2023-01-10T13:17:42.884Z,6.53
2023-01-10T13:20:20.609Z,6.87
2023-01-10T13:22:51.494Z,6.53
2023-01-10T13:25:22.100Z,7.80
2023-01-10T13:27:57.260Z,6.73
2023-01-10T13:30:29.470Z,5.77
2023-01-10T13:33:01.498Z,7.03
2023-01-10T13:35:30.165Z,7.70
2023-01-10T13:37:58.773Z,6.63
2023-01-10T13:40:28.446Z,7.87
2023-01-10T13:43:20.707Z,5.73
2023-01-10T13:46:10.684Z,7.33
2023-01-10T13:48:39.416Z,6.47
2023-01-10T13:51:09.447Z,6.67
2023-01-10T13:53:45.934Z,8.27
2023-01-10T13:56:30.887Z,7.00
2023-01-10T13:59:18.415Z,5.37
2023-01-10T14:02:09.635Z,7.57
2023-01-10T14:04:39.498Z,6.13
2023-01-10T14:07:15.247Z,6.13
2023-01-10T14:09:46.014Z,4.57
2023-01-10T14:12:27.273Z,6.33
2023-01-10T14:15:07.418Z,8.17
2023-01-10T14:17:40.856Z,8.73
2023-01-10T14:20:24.869Z,8.07
2023-01-10T14:23:03.854Z,5.97
2023-01-10T14:25:34.063Z,9.57
2023-01-10T14:28:05.994Z,8.53
2023-01-10T14:30:36.736Z,6.13
2023-01-10T14:33:13.316Z,10.40
2023-01-10T14:35:45.161Z,8.07
2023-01-10T14:38:18.123Z,8.07
2023-01-10T14:40:50.886Z,9.67
2023-01-10T14:43:24.896Z,7.73
2023-01-10T14:45:58.136Z,7.50
2023-01-10T14:48:29.450Z,8.37
2023-01-10T14:51:21.755Z,7.67
2023-01-10T14:53:57.223Z,8.70
2023-01-10T14:56:26.812Z,7.97
2023-01-10T14:58:55.644Z,8.40
2023-01-10T15:01:25.729Z,9.63
2023-01-10T15:03:57.088Z,9.47
2023-01-10T15:06:27.743Z,10.47
2023-01-10T15:09:00.538Z,7.13
2023-01-10T15:11:30.178Z,8.27
2023-01-10T15:14:01.160Z,7.50
2023-01-10T15:16:30.031Z,10.03
2023-01-10T15:19:00.119Z,8.70
2023-01-10T15:21:29.060Z,10.87
2023-01-10T15:23:59.598Z,8.77
2023-01-10T15:26:29.586Z,10.30
2023-01-10T15:29:06.679Z,9.13
2023-01-10T15:31:37.680Z,8.90
2023-01-10T15:34:12.953Z,12.13
2023-01-10T15:36:45.147Z,11.60
2023-01-10T15:39:19.278Z,10.30
2023-01-10T15:41:47.869Z,10.07
2023-01-10T15:44:31.457Z,8.90
2023-01-10T15:47:03.104Z,8.17
2023-01-10T15:49:33.075Z,10.77
2023-01-10T15:52:01.438Z,7.83
2023-01-10T15:54:31.322Z,8.50
2023-01-10T15:57:04.507Z,8.60
2023-01-10T15:59:34.092Z,4.93
2023-01-10T16:02:06.451Z,7.53
2023-01-10T16:04:37.529Z,7.73
2023-01-10T16:07:10.445Z,6.60
2023-01-10T16:09:39.693Z,8.20
2023-01-10T16:12:25.781Z,8.33
2023-01-10T16:14:54.289Z,11.40
2023-01-10T16:17:22.864Z,7.97
2023-01-10T16:20:00.146Z,8.80
2023-01-10T16:22:29.173Z,5.97
2023-01-10T16:24:58.333Z,8.93
2023-01-10T16:27:28.745Z,6.03
2023-01-10T16:29:57.378Z,8.37
2023-01-10T16:32:25.971Z,6.07
2023-01-10T16:34:55.778Z,8.90
2023-01-10T16:37:24.942Z,6.67
2023-01-10T16:39:55.258Z,8.97
2023-01-10T16:42:41.395Z,8.90
2023-01-10T16:45:10.346Z,6.87
2023-01-10T16:47:38.724Z,5.83
2023-01-10T16:50:09.166Z,5.87
2023-01-10T16:52:38.820Z,8.40
2023-01-10T16:55:13.669Z,8.30
2023-01-10T16:57:44.698Z,8.83
2023-01-10T17:00:13.630Z,7.90
2023-01-10T17:02:42.571Z,8.50
2023-01-10T17:05:13.238Z,7.90
2023-01-10T17:07:42.746Z,8.33
2023-01-10T17:10:11.718Z,8.23
2023-01-10T17:12:42.172Z,6.90
2023-01-10T17:15:13.524Z,6.10
2023-01-10T17:17:44.350Z,8.17
2023-01-10T17:20:16.118Z,7.40
2023-01-10T17:22:44.646Z,7.60
2023-01-10T17:25:17.105Z,8.83
2023-01-10T17:27:45.689Z,9.23
2023-01-10T17:30:15.026Z,11.73
2023-01-10T17:32:43.549Z,11.87
2023-01-10T17:35:11.923Z,10.27
2023-01-10T17:37:42.636Z,13.70
2023-01-10T17:40:12.187Z,12.63
2023-01-10T17:42:40.504Z,11.33
2023-01-10T17:45:09.411Z,16.67
2023-01-10T17:47:37.697Z,13.10
2023-01-10T17:50:06.432Z,15.17
2023-01-10T17:52:34.837Z,17.27
2023-01-10T17:55:06.486Z,16.60
2023-01-10T17:57:38.071Z,19.03
2023-01-10T18:00:06.898Z,21.43
2023-01-10T18:02:35.322Z,20.20
2023-01-10T18:05:03.824Z,20.17
2023-01-10T18:07:32.165Z,21.60
2023-01-10T18:10:00.500Z,23.70
2023-01-10T18:12:30.215Z,21.87
2023-01-10T18:14:58.582Z,25.10
2023-01-10T18:17:26.955Z,24.50
2023-01-10T18:19:55.320Z,24.67
2023-01-10T18:22:41.085Z,25.27
2023-01-10T18:25:09.850Z,27.67
2023-01-10T18:27:39.595Z,13.53
2023-01-10T18:30:08.491Z,21.00
2023-01-10T18:32:36.942Z,18.87
2023-01-10T18:35:05.505Z,25.30
2023-01-10T18:37:34.503Z,19.47
2023-01-10T18:40:04.402Z,23.57
2023-01-10T18:42:32.809Z,19.17
2023-01-10T18:45:02.552Z,22.27
2023-01-10T18:47:30.887Z,19.93
2023-01-10T18:49:59.225Z,23.43
2023-01-10T18:52:27.577Z,15.80
2023-01-10T18:54:56.008Z,28.00
2023-01-10T18:57:24.974Z,15.63
2023-01-10T18:59:53.359Z,27.73
2023-01-10T19:02:23.297Z,28.07
2023-01-10T19:04:52.084Z,18.67
2023-01-10T19:07:20.436Z,21.40
2023-01-10T19:09:50.896Z,25.33
2023-01-10T19:12:19.216Z,20.77
2023-01-10T19:14:47.545Z,26.60
2023-01-10T19:17:17.135Z,22.67
2023-01-10T19:19:46.829Z,22.53
2023-01-10T19:22:15.161Z,23.27
2023-01-10T19:24:43.531Z,22.40
2023-01-10T19:27:11.933Z,26.13
2023-01-10T19:29:40.269Z,8.10
2023-01-10T19:32:08.614Z,21.67
2023-01-10T19:34:37.059Z,20.23
2023-01-10T19:37:06.797Z,17.37
2023-01-10T19:39:36.259Z,20.87
2023-01-10T19:42:04.600Z,15.40
2023-01-10T19:44:32.951Z,23.50
2023-01-10T19:47:01.231Z,13.97
2023-01-10T19:49:35.756Z,22.47
2023-01-10T19:52:04.165Z,17.97
2023-01-10T19:54:33.964Z,12.57
2023-01-10T19:57:03.128Z,21.87
2023-01-10T19:59:32.654Z,19.23
2023-01-10T20:02:01.760Z,16.80
2023-01-10T20:04:30.147Z,19.00
2023-01-10T20:06:58.549Z,16.00
2023-01-10T20:09:27.923Z,10.07
2023-01-10T20:11:57.615Z,16.50
2023-01-10T20:14:26.096Z,16.63
2023-01-10T20:16:54.411Z,17.97
2023-01-10T20:19:23.752Z,16.80
2023-01-10T20:21:52.066Z,15.67
2023-01-10T20:24:22.024Z,14.17
2023-01-10T20:26:51.155Z,15.93
2023-01-10T20:29:20.896Z,15.23
2023-01-10T20:31:52.776Z,17.80
2023-01-10T20:34:22.787Z,17.67
2023-01-10T20:36:54.007Z,20.70
2023-01-10T20:39:22.411Z,19.33
2023-01-10T20:41:51.790Z,19.73
2023-01-10T20:44:21.552Z,19.93
2023-01-10T20:46:50.999Z,20.10
2023-01-10T20:49:19.475Z,22.93
2023-01-10T20:51:48.992Z,21.83
2023-01-10T20:54:17.702Z,23.20
2023-01-10T20:56:46.064Z,18.27
2023-01-10T20:59:14.406Z,19.57
2023-01-10T21:01:44.149Z,22.57
2023-01-10T21:04:12.471Z,18.43
2023-01-10T21:06:40.911Z,13.70
2023-01-10T21:09:09.225Z,23.10
2023-01-10T21:11:52.161Z,18.40
2023-01-10T21:14:25.906Z,12.90
2023-01-10T21:16:55.647Z,18.63
2023-01-10T21:19:23.998Z,17.60
2023-01-10T21:21:52.361Z,17.23
2023-01-10T21:24:22.893Z,17.30
2023-01-10T21:26:51.269Z,19.00
2023-01-10T21:29:19.609Z,19.00
2023-01-10T21:31:48.039Z,19.00
2023-01-10T21:34:17.792Z,18.10
2023-01-10T21:36:46.098Z,11.47
2023-01-10T21:39:14.389Z,17.17
2023-01-10T21:42:02.510Z,15.93
2023-01-10T21:44:30.915Z,15.00
2023-01-10T21:46:59.321Z,16.07
2023-01-10T21:49:29.096Z,16.47
2023-01-10T21:51:57.823Z,13.77
2023-01-10T21:54:26.141Z,16.17
2023-01-10T21:56:54.512Z,19.60
2023-01-10T21:59:22.849Z,18.50
2023-01-10T22:01:51.241Z,16.30
2023-01-10T22:04:19.677Z,18.20
2023-01-10T22:06:50.013Z,12.43
2023-01-10T22:09:18.483Z,14.80
2023-01-10T22:11:46.862Z,15.27
2023-01-10T22:14:15.202Z,14.67
2023-01-10T22:16:43.563Z,8.40
2023-01-10T22:19:13.432Z,12.93
2023-01-10T22:21:41.760Z,6.07
2023-01-10T22:24:11.872Z,6.37
2023-01-10T22:26:40.245Z,7.80
2023-01-10T22:29:08.547Z,6.70
2023-01-10T22:31:36.912Z,8.30
2023-01-10T22:34:05.247Z,9.10
2023-01-10T22:36:33.614Z,7.00
2023-01-10T22:39:01.929Z,8.93
2023-01-10T22:41:31.638Z,8.17
2023-01-10T22:43:59.974Z,6.43
2023-01-10T22:46:28.609Z,8.90
2023-01-10T22:48:56.947Z,8.17
2023-01-10T22:51:26.599Z,7.70
2023-01-10T22:53:55.729Z,4.80
2023-01-10T22:56:25.377Z,6.17
2023-01-10T22:58:55.188Z,6.33
2023-01-10T23:01:24.584Z,5.93
2023-01-10T23:03:53.073Z,7.70
2023-01-10T23:06:21.489Z,5.80
2023-01-10T23:08:50.531Z,4.40
2023-01-10T23:11:20.587Z,4.63
2023-01-10T23:13:49.512Z,5.07
2023-01-10T23:16:21.920Z,6.13
2023-01-10T23:18:50.329Z,5.77
2023-01-10T23:21:19.027Z,3.57
2023-01-10T23:23:47.385Z,5.70
2023-01-10T23:26:16.226Z,4.43
2023-01-10T23:28:46.872Z,8.10
2023-01-10T23:31:16.297Z,6.53
2023-01-10T23:33:46.255Z,4.63
2023-01-10T23:36:15.126Z,4.93
2023-01-10T23:38:43.770Z,6.37
2023-01-10T23:41:12.145Z,6.33
2023-01-10T23:43:40.564Z,5.37
2023-01-10T23:46:09.088Z,3.47
2023-01-10T23:48:37.535Z,4.40
2023-01-10T23:51:07.785Z,3.47
2023-01-10T23:53:36.096Z,3.80
2023-01-10T23:56:07.356Z,5.33
2023-01-10T23:58:35.735Z,5.50
